createdAt,value
2023-02-21T00:00:56.533Z,8.77
2023-02-21T00:01:56.540Z,8.77
2023-02-21T00:02:56.506Z,8.77
2023-02-21T00:03:56.485Z,8.77
2023-02-21T00:04:56.505Z,8.76
2023-02-21T00:05:56.470Z,8.76
2023-02-21T00:06:56.475Z,8.76
2023-02-21T00:07:56.431Z,8.74
2023-02-21T00:08:56.425Z,8.76
2023-02-21T00:09:56.423Z,8.76
2023-02-21T00:10:56.419Z,8.74
2023-02-21T00:11:56.392Z,8.76
2023-02-21T00:12:56.391Z,8.74
2023-02-21T00:13:56.362Z,8.77
2023-02-21T00:14:56.370Z,8.79
2023-02-21T00:15:56.341Z,8.77
2023-02-21T00:16:56.339Z,8.77
2023-02-21T00:17:56.316Z,8.77
2023-02-21T00:18:56.322Z,8.77
2023-02-21T00:19:56.287Z,8.76
2023-02-21T00:20:56.292Z,8.76
2023-02-21T00:21:56.262Z,8.76
2023-02-21T00:22:56.260Z,8.77
2023-02-21T00:23:56.234Z,8.79
2023-02-21T00:24:56.235Z,8.76
2023-02-21T00:25:56.240Z,8.77
2023-02-21T00:26:56.208Z,8.77
2023-02-21T00:27:56.191Z,8.80
2023-02-21T00:28:56.194Z,8.79
2023-02-21T00:29:56.157Z,8.80
2023-02-21T00:30:56.217Z,8.80
2023-02-21T00:31:56.136Z,8.79
2023-02-21T00:32:56.214Z,8.80
2023-02-21T00:33:56.114Z,8.80
2023-02-21T00:34:56.096Z,8.80
2023-02-21T00:35:56.105Z,8.86
2023-02-21T00:36:56.085Z,8.83
2023-02-21T00:37:56.055Z,8.83
2023-02-21T00:38:56.046Z,8.80
2023-02-21T00:39:56.034Z,8.83
2023-02-21T00:40:56.042Z,8.81
2023-02-21T00:41:56.024Z,8.80
2023-02-21T00:42:55.994Z,8.81
2023-02-21T00:43:55.974Z,8.79
2023-02-21T00:44:55.991Z,8.80
2023-02-21T00:45:55.966Z,8.81
2023-02-21T00:46:55.942Z,8.80
2023-02-21T00:47:55.920Z,8.81
2023-02-21T00:48:55.921Z,8.81
2023-02-21T00:49:55.891Z,8.81
2023-02-21T00:50:55.903Z,8.81
2023-02-21T00:51:55.881Z,8.81
2023-02-21T00:52:55.890Z,8.84
2023-02-21T00:53:55.850Z,8.83
2023-02-21T00:54:55.845Z,8.83
2023-02-21T00:55:55.831Z,8.83
2023-02-21T00:56:55.821Z,8.81
2023-02-21T00:57:55.805Z,8.83
2023-02-21T00:58:55.787Z,8.84
2023-02-21T00:59:55.779Z,8.86
2023-02-21T01:00:55.860Z,8.84
2023-02-21T01:01:55.749Z,8.84
2023-02-21T01:02:55.751Z,8.84
2023-02-21T01:03:55.743Z,8.84
2023-02-21T01:04:55.713Z,8.84
2023-02-21T01:05:55.712Z,8.84
2023-02-21T01:06:55.696Z,8.83
2023-02-21T01:07:55.681Z,8.83
2023-02-21T01:08:55.677Z,8.84
2023-02-21T01:09:55.652Z,8.86
2023-02-21T01:10:55.645Z,8.84
2023-02-21T01:11:55.614Z,8.86
2023-02-21T01:12:55.623Z,8.83
2023-02-21T01:13:55.611Z,8.84
2023-02-21T01:14:55.601Z,8.84
2023-02-21T01:15:55.622Z,8.84
2023-02-21T01:16:57.354Z,8.84
2023-02-21T01:17:55.551Z,8.87
2023-02-21T01:18:55.544Z,8.89
2023-02-21T01:19:55.532Z,8.87
2023-02-21T01:20:55.521Z,8.86
2023-02-21T01:21:55.503Z,8.86
2023-02-21T01:22:55.508Z,8.87
2023-02-21T01:23:55.487Z,8.87
2023-02-21T01:24:55.464Z,8.86
2023-02-21T01:25:55.468Z,8.87
2023-02-21T01:26:55.444Z,8.86
2023-02-21T01:27:55.445Z,8.86
2023-02-21T01:28:55.424Z,8.87
2023-02-21T01:29:55.413Z,8.89
2023-02-21T01:30:55.459Z,8.87
2023-02-21T01:31:55.362Z,8.87
2023-02-21T01:32:55.364Z,8.91
2023-02-21T01:33:55.349Z,8.91
2023-02-21T01:34:55.324Z,8.89
2023-02-21T01:35:55.332Z,8.87
2023-02-21T01:36:55.313Z,8.91
2023-02-21T01:37:55.316Z,8.92
2023-02-21T01:38:55.297Z,8.92
2023-02-21T01:39:55.272Z,8.91
2023-02-21T01:40:55.269Z,8.91
2023-02-21T01:41:55.231Z,8.92
2023-02-21T01:42:55.240Z,8.91
2023-02-21T01:43:55.228Z,8.91
2023-02-21T01:44:55.215Z,8.92
2023-02-21T01:45:55.221Z,8.89
2023-02-21T01:46:55.179Z,8.91
2023-02-21T01:47:55.181Z,8.95
2023-02-21T01:48:55.171Z,8.95
2023-02-21T01:49:55.152Z,8.95
2023-02-21T01:50:55.136Z,8.94
2023-02-21T01:51:55.111Z,8.94
2023-02-21T01:52:55.119Z,8.95
2023-02-21T01:53:55.088Z,8.95
2023-02-21T01:54:55.086Z,8.96
2023-02-21T01:55:55.090Z,8.95
2023-02-21T01:56:55.056Z,8.95
2023-02-21T01:57:55.058Z,8.92
2023-02-21T01:58:55.037Z,8.95
2023-02-21T01:59:55.042Z,8.96
2023-02-21T02:00:55.013Z,8.96
2023-02-21T02:01:55.029Z,8.95
2023-02-21T02:02:54.968Z,8.98
2023-02-21T02:03:54.975Z,8.98
2023-02-21T02:04:54.949Z,8.98
2023-02-21T02:05:54.955Z,8.95
2023-02-21T02:06:54.926Z,8.94
2023-02-21T02:07:54.906Z,8.96
2023-02-21T02:08:54.909Z,8.96
2023-02-21T02:09:54.885Z,8.96
2023-02-21T02:10:54.886Z,8.96
2023-02-21T02:11:54.873Z,8.96
2023-02-21T02:12:54.839Z,8.96
2023-02-21T02:13:54.835Z,8.96
2023-02-21T02:14:54.823Z,8.98
2023-02-21T02:15:54.858Z,8.98
2023-02-21T02:16:54.795Z,8.96
2023-02-21T02:17:54.778Z,8.98
2023-02-21T02:18:54.771Z,8.96
2023-02-21T02:19:54.755Z,8.95
2023-02-21T02:20:54.770Z,8.96
2023-02-21T02:21:54.744Z,8.98
2023-02-21T02:22:54.708Z,8.96
2023-02-21T02:23:54.710Z,8.96
2023-02-21T02:24:54.686Z,8.96
2023-02-21T02:25:54.693Z,8.95
2023-02-21T02:26:54.667Z,8.96
2023-02-21T02:27:54.657Z,8.95
2023-02-21T02:28:54.655Z,8.96
2023-02-21T02:29:54.638Z,8.98
2023-02-21T02:30:54.657Z,8.98
2023-02-21T02:31:54.733Z,8.96
2023-02-21T02:32:54.585Z,8.95
2023-02-21T02:33:54.599Z,8.95
2023-02-21T02:34:54.567Z,8.96
2023-02-21T02:35:54.563Z,8.95
2023-02-21T02:36:54.535Z,8.94
2023-02-21T02:37:54.523Z,8.94
2023-02-21T02:38:54.507Z,8.94
2023-02-21T02:39:54.502Z,8.94
2023-02-21T02:40:54.505Z,8.95
2023-02-21T02:41:54.474Z,8.94
2023-02-21T02:42:54.463Z,8.94
2023-02-21T02:43:54.440Z,8.95
2023-02-21T02:44:54.437Z,8.95
2023-02-21T02:45:54.438Z,8.94
2023-02-21T02:46:54.408Z,8.94
2023-02-21T02:47:54.396Z,8.95
2023-02-21T02:48:54.379Z,8.94
2023-02-21T02:49:54.370Z,8.96
2023-02-21T02:50:54.366Z,8.95
2023-02-21T02:51:54.339Z,8.94
2023-02-21T02:52:54.337Z,8.95
2023-02-21T02:53:54.319Z,8.95
2023-02-21T02:54:54.289Z,8.94
2023-02-21T02:55:54.297Z,8.94
2023-02-21T02:56:54.272Z,8.95
2023-02-21T02:57:54.266Z,8.92
2023-02-21T02:58:54.285Z,8.92
2023-02-21T02:59:54.235Z,8.94
2023-02-21T03:00:54.231Z,8.94
2023-02-21T03:01:54.295Z,8.92
2023-02-21T03:02:54.248Z,8.95
2023-02-21T03:03:54.213Z,8.92
2023-02-21T03:04:54.182Z,8.94
2023-02-21T03:05:54.167Z,8.95
2023-02-21T03:06:54.138Z,8.94
2023-02-21T03:07:54.126Z,8.95
2023-02-21T03:08:54.136Z,8.94
2023-02-21T03:09:54.106Z,8.95
2023-02-21T03:10:54.087Z,8.98
2023-02-21T03:11:54.094Z,8.99
2023-02-21T03:12:54.083Z,8.98
2023-02-21T03:13:54.052Z,8.96
2023-02-21T03:14:54.032Z,8.96
2023-02-21T03:15:54.057Z,8.98
2023-02-21T03:16:54.035Z,8.96
2023-02-21T03:17:54.003Z,8.98
2023-02-21T03:18:53.981Z,8.98
2023-02-21T03:19:53.988Z,8.96
2023-02-21T03:20:53.975Z,8.96
2023-02-21T03:21:54.025Z,8.98
2023-02-21T03:22:53.935Z,8.98
2023-02-21T03:23:53.922Z,8.98
2023-02-21T03:24:53.918Z,8.96
2023-02-21T03:25:53.899Z,8.96
2023-02-21T03:26:53.943Z,8.96
2023-02-21T03:27:53.872Z,8.96
2023-02-21T03:28:53.852Z,8.98
2023-02-21T03:29:53.844Z,8.96
2023-02-21T03:30:53.832Z,8.95
2023-02-21T03:31:53.938Z,8.96
2023-02-21T03:32:53.802Z,8.98
2023-02-21T03:33:53.803Z,8.98
2023-02-21T03:34:53.780Z,8.98
2023-02-21T03:35:54.251Z,8.98
2023-02-21T03:36:53.760Z,8.98
2023-02-21T03:37:53.741Z,8.98
2023-02-21T03:38:53.729Z,8.96
2023-02-21T03:39:53.723Z,8.96
2023-02-21T03:40:53.711Z,8.94
2023-02-21T03:41:53.711Z,8.95
2023-02-21T03:42:53.682Z,8.94
2023-02-21T03:43:53.668Z,8.95
2023-02-21T03:44:53.649Z,8.95
2023-02-21T03:45:53.648Z,8.96
2023-02-21T03:46:53.661Z,8.95
2023-02-21T03:47:53.618Z,8.96
2023-02-21T03:48:53.599Z,8.94
2023-02-21T03:49:53.593Z,8.92
2023-02-21T03:50:53.578Z,8.95
2023-02-21T03:51:53.576Z,8.95
2023-02-21T03:52:53.547Z,8.94
2023-02-21T03:53:53.538Z,8.94
2023-02-21T03:54:53.524Z,8.94
2023-02-21T03:55:53.526Z,8.95
2023-02-21T03:56:53.509Z,8.94
2023-02-21T03:57:53.495Z,8.95
2023-02-21T03:58:53.471Z,8.96
2023-02-21T03:59:53.460Z,8.95
2023-02-21T04:00:53.473Z,8.96
2023-02-21T04:01:53.516Z,8.96
2023-02-21T04:02:53.425Z,8.95
2023-02-21T04:03:53.411Z,8.95
2023-02-21T04:04:53.391Z,8.95
2023-02-21T04:05:53.390Z,8.98
2023-02-21T04:06:53.410Z,8.98
2023-02-21T04:07:53.374Z,8.98
2023-02-21T04:08:53.347Z,8.98
2023-02-21T04:09:53.342Z,8.98
2023-02-21T04:10:53.324Z,8.98
2023-02-21T04:11:53.341Z,8.99
2023-02-21T04:12:53.299Z,9.01
2023-02-21T04:13:53.289Z,8.99
2023-02-21T04:14:53.270Z,9.01
2023-02-21T04:15:53.261Z,8.99
2023-02-21T04:16:53.260Z,8.99
2023-02-21T04:17:53.230Z,8.96
2023-02-21T04:18:53.242Z,9.01
2023-02-21T04:19:53.218Z,9.01
2023-02-21T04:20:53.192Z,8.99
2023-02-21T04:21:53.195Z,9.01
2023-02-21T04:23:02.814Z,9.01
2023-02-21T04:23:54.160Z,8.99
2023-02-21T04:24:53.149Z,8.99
2023-02-21T04:25:53.129Z,9.01
2023-02-21T04:26:53.133Z,8.98
2023-02-21T04:27:53.109Z,8.99
2023-02-21T04:28:53.095Z,8.99
2023-02-21T04:29:53.081Z,9.04
2023-02-21T04:30:53.067Z,9.04
2023-02-21T04:31:53.155Z,9.04
2023-02-21T04:32:53.044Z,9.02
2023-02-21T04:34:02.545Z,9.05
2023-02-21T04:34:54.026Z,9.04
2023-02-21T04:35:53.033Z,9.01
2023-02-21T04:36:53.006Z,9.01
2023-02-21T04:37:53.045Z,9.01
2023-02-21T04:38:52.964Z,9.01
2023-02-21T04:39:52.950Z,9.04
2023-02-21T04:40:52.938Z,9.02
2023-02-21T04:41:52.940Z,9.02
2023-02-21T04:42:52.915Z,9.04
2023-02-21T04:43:52.908Z,9.04
2023-02-21T04:45:00.052Z,9.04
2023-02-21T04:45:53.910Z,9.02
2023-02-21T04:46:52.874Z,9.04
2023-02-21T04:47:52.856Z,9.04
2023-02-21T04:48:52.853Z,9.04
2023-02-21T04:49:52.827Z,9.05
2023-02-21T04:50:52.816Z,9.04
2023-02-21T04:51:52.809Z,9.05
2023-02-21T04:52:52.786Z,9.04
2023-02-21T04:53:52.777Z,9.05
2023-02-21T04:54:52.758Z,9.05
2023-02-21T04:55:52.748Z,9.04
2023-02-21T04:56:52.776Z,9.04
2023-02-21T04:57:52.726Z,9.02
2023-02-21T04:58:52.713Z,9.02
2023-02-21T04:59:52.698Z,9.04
2023-02-21T05:00:52.702Z,9.08
2023-02-21T05:01:52.692Z,9.08
2023-02-21T05:02:52.656Z,9.05
2023-02-21T05:03:52.688Z,9.08
2023-02-21T05:04:52.659Z,9.10
2023-02-21T05:05:52.615Z,9.05
2023-02-21T05:06:52.604Z,9.10
2023-02-21T05:07:52.597Z,9.04
2023-02-21T05:08:52.573Z,9.04
2023-02-21T05:09:52.573Z,9.05
2023-02-21T05:10:52.552Z,9.08
2023-02-21T05:11:52.553Z,9.08
2023-02-21T05:12:52.536Z,9.08
2023-02-21T05:13:52.530Z,9.11
2023-02-21T05:14:52.505Z,9.11
2023-02-21T05:15:52.493Z,9.10
2023-02-21T05:16:52.578Z,9.10
2023-02-21T05:17:52.463Z,9.13
2023-02-21T05:18:52.441Z,9.11
2023-02-21T05:19:52.442Z,9.11
2023-02-21T05:20:52.447Z,9.15
2023-02-21T05:21:52.434Z,9.15
2023-02-21T05:22:53.300Z,9.14
2023-02-21T05:23:52.391Z,9.14
2023-02-21T05:24:52.371Z,9.17
2023-02-21T05:25:52.369Z,9.17
2023-02-21T05:26:52.360Z,9.17
2023-02-21T05:27:52.341Z,9.18
2023-02-21T05:28:52.324Z,9.17
2023-02-21T05:29:52.311Z,9.17
2023-02-21T05:30:52.424Z,9.18
2023-02-21T05:31:52.331Z,9.18
2023-02-21T05:32:52.270Z,9.17
2023-02-21T05:33:52.258Z,9.17
2023-02-21T05:34:52.280Z,9.20
2023-02-21T05:35:52.240Z,9.18
2023-02-21T05:36:52.257Z,9.20
2023-02-21T05:37:52.211Z,9.20
2023-02-21T05:38:52.281Z,9.21
2023-02-21T05:39:52.196Z,9.18
2023-02-21T05:40:52.209Z,9.23
2023-02-21T05:41:52.178Z,9.21
2023-02-21T05:42:52.168Z,9.24
2023-02-21T05:43:52.161Z,9.23
2023-02-21T05:44:52.122Z,9.24
2023-02-21T05:45:52.161Z,9.26
2023-02-21T05:46:52.090Z,9.24
2023-02-21T05:47:52.089Z,9.26
2023-02-21T05:48:52.069Z,9.26
2023-02-21T05:49:52.066Z,9.28
2023-02-21T05:50:52.039Z,9.29
2023-02-21T05:51:52.036Z,9.29
2023-02-21T05:52:52.028Z,9.28
2023-02-21T05:53:52.014Z,9.29
2023-02-21T05:54:51.995Z,9.28
2023-02-21T05:55:51.984Z,9.31
2023-02-21T05:56:51.967Z,9.28
2023-02-21T05:57:51.984Z,9.26
2023-02-21T05:58:51.948Z,9.28
2023-02-21T05:59:51.925Z,9.26
2023-02-21T06:00:51.914Z,9.26
2023-02-21T06:01:51.916Z,9.28
2023-02-21T06:02:51.885Z,9.29
2023-02-21T06:03:51.939Z,9.31
2023-02-21T06:04:51.856Z,9.31
2023-02-21T06:05:51.851Z,9.35
2023-02-21T06:06:51.829Z,9.33
2023-02-21T06:08:01.495Z,9.33
2023-02-21T06:09:00.324Z,9.32
2023-02-21T06:09:59.296Z,9.29
2023-02-21T06:10:59.285Z,9.32
2023-02-21T06:12:00.465Z,9.32
2023-02-21T06:12:59.266Z,9.33
2023-02-21T06:13:51.736Z,9.35
2023-02-21T06:14:51.725Z,9.38
2023-02-21T06:15:51.745Z,9.35
2023-02-21T06:16:51.701Z,9.36
2023-02-21T06:17:51.746Z,9.36
2023-02-21T06:18:51.689Z,9.33
2023-02-21T06:19:51.667Z,9.36
2023-02-21T06:20:51.654Z,9.38
2023-02-21T06:21:51.633Z,9.39
2023-02-21T06:22:51.646Z,9.42
2023-02-21T06:23:51.621Z,9.42
2023-02-21T06:24:52.231Z,9.43
2023-02-21T06:25:51.585Z,9.46
2023-02-21T06:26:51.564Z,9.46
2023-02-21T06:27:51.565Z,9.48
2023-02-21T06:28:51.558Z,9.47
2023-02-21T06:29:51.534Z,9.47
2023-02-21T06:30:51.592Z,9.47
2023-02-21T06:31:51.515Z,9.48
2023-02-21T06:32:51.510Z,9.48
2023-02-21T06:33:51.501Z,9.50
2023-02-21T06:34:51.478Z,9.51
2023-02-21T06:35:51.457Z,9.51
2023-02-21T06:36:51.460Z,9.51
2023-02-21T06:37:51.449Z,9.50
2023-02-21T06:38:51.490Z,9.50
2023-02-21T06:39:51.413Z,9.51
2023-02-21T06:40:51.660Z,9.53
2023-02-21T06:41:51.384Z,9.54
2023-02-21T06:42:51.509Z,9.53
2023-02-21T06:43:51.359Z,9.51
2023-02-21T06:44:51.352Z,9.48
2023-02-21T06:45:51.333Z,9.51
2023-02-21T06:46:51.330Z,9.53
2023-02-21T06:47:51.320Z,9.53
2023-02-21T06:48:51.307Z,9.51
2023-02-21T06:49:51.280Z,9.56
2023-02-21T06:50:51.281Z,9.54
2023-02-21T06:51:51.248Z,9.51
2023-02-21T06:52:51.323Z,9.51
2023-02-21T06:53:51.235Z,9.48
2023-02-21T06:54:51.234Z,9.48
2023-02-21T06:55:51.210Z,9.50
2023-02-21T06:56:51.198Z,9.51
2023-02-21T06:57:51.198Z,9.51
2023-02-21T06:58:51.188Z,9.51
2023-02-21T06:59:51.157Z,9.48
2023-02-21T07:00:51.162Z,9.51
2023-02-21T07:01:51.260Z,9.50
2023-02-21T07:02:51.129Z,9.50
2023-02-21T07:03:51.108Z,9.48
2023-02-21T07:04:51.154Z,9.48
2023-02-21T07:05:51.117Z,9.50
2023-02-21T07:06:51.077Z,9.50
2023-02-21T07:07:51.057Z,9.48
2023-02-21T07:08:51.037Z,9.51
2023-02-21T07:09:51.028Z,9.50
2023-02-21T07:10:51.025Z,9.47
2023-02-21T07:11:50.995Z,9.46
2023-02-21T07:12:50.995Z,9.47
2023-02-21T07:13:50.976Z,9.43
2023-02-21T07:14:50.965Z,9.43
2023-02-21T07:15:50.959Z,9.42
2023-02-21T07:16:50.938Z,9.42
2023-02-21T07:17:50.944Z,9.46
2023-02-21T07:18:50.922Z,9.42
2023-02-21T07:19:50.893Z,9.40
2023-02-21T07:20:50.882Z,9.40
2023-02-21T07:21:50.879Z,9.39
2023-02-21T07:22:50.873Z,9.38
2023-02-21T07:23:50.843Z,9.38
2023-02-21T07:24:50.837Z,9.36
2023-02-21T07:25:50.821Z,9.36
2023-02-21T07:26:50.810Z,9.35
2023-02-21T07:27:50.799Z,9.36
2023-02-21T07:28:50.863Z,9.35
2023-02-21T07:29:50.779Z,9.33
2023-02-21T07:30:50.811Z,9.35
2023-02-21T07:31:50.794Z,9.33
2023-02-21T07:32:50.752Z,9.31
2023-02-21T07:33:50.718Z,9.31
2023-02-21T07:34:50.710Z,9.29
2023-02-21T07:35:50.692Z,9.31
2023-02-21T07:36:50.697Z,9.28
2023-02-21T07:37:50.686Z,9.28
2023-02-21T07:38:50.662Z,9.28
2023-02-21T07:39:50.646Z,9.28
2023-02-21T07:40:50.637Z,9.29
2023-02-21T07:41:50.626Z,9.29
2023-02-21T07:42:50.619Z,9.31
2023-02-21T07:43:50.588Z,9.29
2023-02-21T07:44:50.587Z,9.29
2023-02-21T07:45:50.567Z,9.29
2023-02-21T07:46:50.584Z,9.28
2023-02-21T07:47:50.551Z,9.28
2023-02-21T07:48:50.529Z,9.28
2023-02-21T07:49:50.520Z,9.29
2023-02-21T07:50:50.517Z,9.29
2023-02-21T07:51:50.501Z,9.31
2023-02-21T07:52:50.508Z,9.29
2023-02-21T07:53:50.460Z,9.29
2023-02-21T07:54:50.471Z,9.28
2023-02-21T07:55:50.457Z,9.31
2023-02-21T07:56:50.436Z,9.31
2023-02-21T07:57:50.429Z,9.29
2023-02-21T07:58:50.409Z,9.29
2023-02-21T07:59:50.392Z,9.29
2023-02-21T08:00:50.411Z,9.26
2023-02-21T08:01:50.396Z,9.28
2023-02-21T08:02:50.368Z,9.28
2023-02-21T08:03:50.358Z,9.29
2023-02-21T08:04:50.363Z,9.29
2023-02-21T08:05:50.320Z,9.29
2023-02-21T08:06:50.306Z,9.29
2023-02-21T08:07:50.296Z,9.29
2023-02-21T08:08:50.274Z,9.29
2023-02-21T08:09:50.256Z,9.31
2023-02-21T08:10:50.246Z,9.31
2023-02-21T08:11:50.231Z,9.31
2023-02-21T08:12:50.234Z,9.33
2023-02-21T08:13:50.206Z,9.35
2023-02-21T08:14:50.202Z,9.35
2023-02-21T08:15:50.274Z,9.33
2023-02-21T08:16:50.172Z,9.35
2023-02-21T08:17:50.177Z,9.35
2023-02-21T08:18:50.141Z,9.36
2023-02-21T08:19:50.122Z,9.40
2023-02-21T08:20:50.112Z,9.39
2023-02-21T08:21:50.101Z,9.39
2023-02-21T08:22:50.105Z,9.42
2023-02-21T08:23:50.070Z,9.39
2023-02-21T08:24:50.061Z,9.43
2023-02-21T08:25:50.049Z,9.43
2023-02-21T08:26:50.039Z,9.43
2023-02-21T08:27:50.030Z,9.47
2023-02-21T08:28:50.019Z,9.47
2023-02-21T08:29:50.000Z,9.47
2023-02-21T08:30:49.990Z,9.47
2023-02-21T08:31:50.013Z,9.50
2023-02-21T08:32:49.978Z,9.48
2023-02-21T08:33:49.998Z,9.50
2023-02-21T08:34:49.938Z,9.51
2023-02-21T08:35:49.927Z,9.53
2023-02-21T08:36:49.917Z,9.53
2023-02-21T08:37:49.928Z,9.53
2023-02-21T08:38:49.886Z,9.53
2023-02-21T08:39:49.870Z,9.54
2023-02-21T08:40:49.867Z,9.56
2023-02-21T08:41:49.846Z,9.54
2023-02-21T08:42:49.862Z,9.56
2023-02-21T08:43:49.827Z,9.56
2023-02-21T08:44:49.817Z,9.57
2023-02-21T08:45:49.797Z,9.57
2023-02-21T08:46:49.980Z,9.60
2023-02-21T08:47:49.780Z,9.58
2023-02-21T08:48:49.760Z,9.61
2023-02-21T08:49:49.747Z,9.64
2023-02-21T08:50:49.736Z,9.65
2023-02-21T08:51:49.721Z,9.64
2023-02-21T08:52:49.727Z,9.64
2023-02-21T08:53:49.708Z,9.66
2023-02-21T08:54:49.688Z,9.66
2023-02-21T08:55:49.677Z,9.69
2023-02-21T08:56:49.680Z,9.72
2023-02-21T08:57:49.652Z,9.72
2023-02-21T08:58:49.654Z,9.72
2023-02-21T08:59:49.617Z,9.74
2023-02-21T09:00:49.644Z,9.75
2023-02-21T09:01:49.634Z,9.75
2023-02-21T09:02:49.588Z,9.76
2023-02-21T09:03:49.597Z,9.76
2023-02-21T09:04:49.570Z,9.78
2023-02-21T09:05:49.549Z,9.76
2023-02-21T09:06:49.542Z,9.78
2023-02-21T09:07:49.534Z,9.78
2023-02-21T09:08:49.525Z,9.79
2023-02-21T09:09:49.497Z,9.76
2023-02-21T09:10:49.599Z,9.78
2023-02-21T09:11:49.477Z,9.76
2023-02-21T09:12:49.457Z,9.76
2023-02-21T09:13:49.468Z,9.76
2023-02-21T09:14:49.444Z,9.78
2023-02-21T09:15:49.406Z,9.78
2023-02-21T09:16:49.428Z,9.78
2023-02-21T09:17:49.394Z,9.78
2023-02-21T09:18:49.388Z,9.79
2023-02-21T09:19:49.360Z,9.79
2023-02-21T09:20:49.349Z,9.79
2023-02-21T09:21:49.330Z,9.84
2023-02-21T09:22:49.331Z,9.84
2023-02-21T09:23:49.322Z,9.83
2023-02-21T09:24:49.300Z,9.86
2023-02-21T09:25:49.276Z,9.86
2023-02-21T09:26:49.269Z,9.87
2023-02-21T09:27:49.264Z,9.86
2023-02-21T09:28:49.256Z,9.89
2023-02-21T09:29:49.227Z,9.87
2023-02-21T09:30:49.219Z,9.93
2023-02-21T09:31:49.250Z,9.91
2023-02-21T09:32:49.200Z,9.96
2023-02-21T09:33:49.195Z,9.94
2023-02-21T09:34:49.178Z,9.96
2023-02-21T09:35:49.162Z,10.02
2023-02-21T09:36:49.157Z,10.02
2023-02-21T09:37:49.120Z,10.07
2023-02-21T09:38:49.133Z,10.07
2023-02-21T09:39:49.099Z,10.07
2023-02-21T09:40:49.095Z,10.09
2023-02-21T09:41:49.090Z,10.09
2023-02-21T09:42:49.058Z,10.14
2023-02-21T09:43:49.056Z,10.17
2023-02-21T09:44:49.047Z,10.27
2023-02-21T09:45:49.029Z,10.27
2023-02-21T09:46:49.023Z,10.26
2023-02-21T09:47:48.998Z,10.25
2023-02-21T09:48:49.008Z,10.22
2023-02-21T09:49:49.004Z,10.23
2023-02-21T09:50:48.962Z,10.25
2023-02-21T09:51:48.954Z,10.22
2023-02-21T09:52:48.942Z,10.27
2023-02-21T09:53:48.946Z,10.26
2023-02-21T09:54:48.908Z,10.29
2023-02-21T09:55:48.889Z,10.38
2023-02-21T09:56:48.875Z,10.38
2023-02-21T09:57:48.864Z,10.41
2023-02-21T09:58:48.856Z,10.41
2023-02-21T09:59:48.821Z,10.36
2023-02-21T10:00:48.879Z,10.36
2023-02-21T10:01:48.806Z,10.34
2023-02-21T10:02:48.796Z,10.38
2023-02-21T10:03:48.781Z,10.36
2023-02-21T10:04:48.853Z,10.40
2023-02-21T10:05:48.761Z,10.34
2023-02-21T10:06:48.744Z,10.36
2023-02-21T10:07:48.739Z,10.36
2023-02-21T10:08:48.724Z,10.33
2023-02-21T10:09:48.891Z,10.32
2023-02-21T10:10:48.695Z,10.38
2023-02-21T10:11:48.660Z,10.41
2023-02-21T10:12:48.661Z,10.45
2023-02-21T10:13:48.664Z,10.44
2023-02-21T10:14:48.645Z,10.42
2023-02-21T10:15:48.616Z,10.41
2023-02-21T10:16:48.635Z,10.41
2023-02-21T10:17:48.590Z,10.41
2023-02-21T10:18:48.599Z,10.42
2023-02-21T10:19:48.556Z,10.42
2023-02-21T10:20:48.559Z,10.42
2023-02-21T10:21:48.544Z,10.45
2023-02-21T10:22:48.519Z,10.44
2023-02-21T10:23:48.524Z,10.45
2023-02-21T10:24:48.486Z,10.45
2023-02-21T10:25:48.483Z,10.42
2023-02-21T10:26:48.466Z,10.47
2023-02-21T10:27:48.456Z,10.45
2023-02-21T10:28:48.455Z,10.45
2023-02-21T10:29:48.427Z,10.48
2023-02-21T10:30:48.526Z,10.47
2023-02-21T10:31:48.510Z,10.48
2023-02-21T10:32:48.388Z,10.47
2023-02-21T10:33:48.388Z,10.45
2023-02-21T10:34:48.359Z,10.47
2023-02-21T10:35:48.359Z,10.47
2023-02-21T10:36:48.332Z,10.51
2023-02-21T10:37:48.327Z,10.56
2023-02-21T10:38:48.315Z,10.66
2023-02-21T10:39:48.299Z,10.71
2023-02-21T10:40:48.285Z,10.68
2023-02-21T10:41:48.265Z,10.70
2023-02-21T10:42:48.255Z,10.73
2023-02-21T10:43:48.278Z,10.67
2023-02-21T10:44:48.243Z,10.67
2023-02-21T10:45:48.280Z,10.73
2023-02-21T10:46:48.206Z,10.73
2023-02-21T10:47:48.227Z,10.70
2023-02-21T10:48:48.194Z,10.71
2023-02-21T10:49:48.165Z,10.70
2023-02-21T10:50:48.155Z,10.70
2023-02-21T10:51:48.144Z,10.68
2023-02-21T10:52:48.135Z,10.68
2023-02-21T10:53:48.124Z,10.67
2023-02-21T10:54:48.092Z,10.66
2023-02-21T10:55:48.084Z,10.67
2023-02-21T10:56:48.074Z,10.70
2023-02-21T10:57:48.067Z,10.70
2023-02-21T10:58:48.054Z,10.74
2023-02-21T10:59:50.600Z,10.74
2023-02-21T11:00:48.508Z,10.73
2023-02-21T11:01:48.003Z,10.74
2023-02-21T11:02:48.017Z,10.73
2023-02-21T11:03:47.991Z,10.71
2023-02-21T11:04:47.962Z,10.70
2023-02-21T11:05:47.943Z,10.70
2023-02-21T11:06:47.934Z,10.70
2023-02-21T11:07:47.934Z,10.68
2023-02-21T11:08:47.912Z,10.71
2023-02-21T11:09:47.924Z,10.74
2023-02-21T11:10:47.886Z,10.76
2023-02-21T11:11:47.890Z,10.78
2023-02-21T11:12:47.887Z,10.78
2023-02-21T11:13:47.853Z,10.71
2023-02-21T11:14:47.828Z,10.73
2023-02-21T11:15:47.857Z,10.70
2023-02-21T11:16:47.810Z,10.73
2023-02-21T11:17:47.794Z,10.74
2023-02-21T11:18:47.792Z,10.78
2023-02-21T11:19:47.776Z,10.71
2023-02-21T11:20:47.764Z,10.71
2023-02-21T11:21:47.741Z,10.70
2023-02-21T11:22:47.720Z,10.73
2023-02-21T11:23:47.727Z,10.73
2023-02-21T11:24:47.699Z,10.71
2023-02-21T11:25:47.689Z,10.68
2023-02-21T11:26:47.688Z,10.73
2023-02-21T11:27:47.673Z,10.70
2023-02-21T11:28:47.650Z,10.71
2023-02-21T11:29:47.637Z,10.68
2023-02-21T11:30:47.694Z,10.71
2023-02-21T11:31:47.693Z,10.70
2023-02-21T11:32:47.602Z,10.71
2023-02-21T11:33:47.595Z,10.73
2023-02-21T11:34:47.570Z,10.76
2023-02-21T11:35:47.561Z,10.79
2023-02-21T11:36:47.542Z,10.84
2023-02-21T11:37:47.526Z,10.85
2023-02-21T11:38:47.533Z,10.85
2023-02-21T11:39:47.512Z,10.85
2023-02-21T11:40:47.492Z,10.88
2023-02-21T11:41:47.502Z,10.94
2023-02-21T11:42:47.465Z,11.07
2023-02-21T11:43:48.058Z,11.07
2023-02-21T11:44:47.442Z,11.10
2023-02-21T11:45:47.479Z,11.22
2023-02-21T11:46:47.410Z,11.22
2023-02-21T11:47:47.405Z,11.25
2023-02-21T11:48:47.402Z,11.32
2023-02-21T11:49:49.335Z,11.35
2023-02-21T11:50:47.379Z,11.32
2023-02-21T11:51:47.371Z,11.29
2023-02-21T11:52:47.335Z,11.25
2023-02-21T11:53:47.369Z,11.25
2023-02-21T11:54:47.325Z,11.28
2023-02-21T11:55:47.336Z,11.32
2023-02-21T11:56:47.282Z,11.33
2023-02-21T11:57:47.414Z,11.25
2023-02-21T11:58:47.262Z,11.21
2023-02-21T11:59:47.239Z,11.28
2023-02-21T12:00:47.220Z,11.28
2023-02-21T12:01:47.220Z,11.28
2023-02-21T12:02:47.253Z,11.29
2023-02-21T12:03:47.206Z,11.28
2023-02-21T12:04:47.168Z,11.25
2023-02-21T12:05:47.215Z,11.24
2023-02-21T12:06:49.829Z,11.24
2023-02-21T12:07:47.130Z,11.22
2023-02-21T12:08:47.137Z,11.21
2023-02-21T12:09:47.109Z,11.19
2023-02-21T12:10:47.088Z,11.18
2023-02-21T12:11:47.081Z,11.17
2023-02-21T12:12:47.061Z,11.17
2023-02-21T12:13:47.077Z,11.18
2023-02-21T12:14:47.052Z,11.21
2023-02-21T12:15:47.066Z,11.28
2023-02-21T12:16:47.010Z,11.28
2023-02-21T12:17:46.998Z,11.28
2023-02-21T12:18:46.976Z,11.29
2023-02-21T12:19:46.986Z,11.33
2023-02-21T12:20:46.959Z,11.33
2023-02-21T12:21:46.947Z,11.32
2023-02-21T12:22:46.935Z,11.33
2023-02-21T12:23:46.914Z,11.37
2023-02-21T12:24:46.938Z,11.39
2023-02-21T12:25:46.919Z,11.40
2023-02-21T12:26:46.881Z,11.42
2023-02-21T12:27:46.874Z,11.37
2023-02-21T12:28:46.862Z,11.36
2023-02-21T12:29:46.849Z,11.37
2023-02-21T12:30:46.850Z,11.42
2023-02-21T12:31:46.943Z,11.42
2023-02-21T12:32:46.814Z,11.40
2023-02-21T12:33:46.800Z,11.44
2023-02-21T12:34:46.779Z,11.43
2023-02-21T12:35:46.823Z,11.49
2023-02-21T12:36:46.757Z,11.54
2023-02-21T12:37:46.738Z,11.60
2023-02-21T12:38:46.745Z,11.70
2023-02-21T12:39:46.731Z,11.79
2023-02-21T12:40:46.705Z,11.88
2023-02-21T12:41:46.697Z,11.83
2023-02-21T12:42:46.669Z,11.83
2023-02-21T12:43:46.669Z,11.86
2023-02-21T12:44:46.658Z,11.86
2023-02-21T12:45:46.651Z,11.86
2023-02-21T12:46:46.676Z,11.79
2023-02-21T12:47:46.618Z,11.79
2023-02-21T12:48:46.594Z,11.82
2023-02-21T12:49:46.612Z,11.88
2023-02-21T12:50:46.608Z,11.82
2023-02-21T12:51:46.583Z,11.80
2023-02-21T12:52:46.548Z,11.75
2023-02-21T12:53:46.614Z,11.73
2023-02-21T12:54:46.529Z,11.73
2023-02-21T12:55:46.521Z,11.73
2023-02-21T12:56:46.504Z,11.75
2023-02-21T12:57:46.488Z,11.82
2023-02-21T12:58:46.486Z,11.80
2023-02-21T12:59:46.526Z,11.76
2023-02-21T13:00:46.450Z,11.72
2023-02-21T13:01:46.483Z,11.65
2023-02-21T13:02:46.438Z,11.58
2023-02-21T13:03:46.413Z,11.52
2023-02-21T13:04:46.400Z,11.52
2023-02-21T13:05:46.394Z,11.52
2023-02-21T13:06:46.358Z,11.61
2023-02-21T13:07:46.359Z,11.70
2023-02-21T13:08:46.363Z,11.75
2023-02-21T13:09:46.354Z,11.80
2023-02-21T13:10:46.304Z,11.99
2023-02-21T13:11:46.307Z,11.96